sensor_id;sensor_type;location;lat;lon;timestamp;pressure;altitude;pressure_sealevel;temperature;humidity
29383;BME280;16365;51.598;7.668;2022-12-11T00:01:23;100471.56;;;7.57;48.03
29383;BME280;16365;51.598;7.668;2022-12-11T00:03:49;100480.97;;;7.56;48.28
29383;BME280;16365;51.598;7.668;2022-12-11T00:06:19;100471.06;;;7.55;48.05
29383;BME280;16365;51.598;7.668;2022-12-11T00:08:47;100474.94;;;7.54;47.92
29383;BME280;16365;51.598;7.668;2022-12-11T00:11:16;100470.06;;;7.51;48.45
29383;BME280;16365;51.598;7.668;2022-12-11T00:13:42;100470.38;;;7.50;48.43
29383;BME280;16365;51.598;7.668;2022-12-11T00:16:09;100465.69;;;7.50;47.98
29383;BME280;16365;51.598;7.668;2022-12-11T00:18:36;100459.34;;;7.50;48.02
29383;BME280;16365;51.598;7.668;2022-12-11T00:21:05;100457.41;;;7.50;48.48
29383;BME280;16365;51.598;7.668;2022-12-11T00:23:34;100466.50;;;7.51;48.47
29383;BME280;16365;51.598;7.668;2022-12-11T00:26:04;100460.16;;;7.50;48.34
29383;BME280;16365;51.598;7.668;2022-12-11T00:28:31;100460.16;;;7.50;48.20
29383;BME280;16365;51.598;7.668;2022-12-11T00:30:58;100463.72;;;7.51;48.15
29383;BME280;16365;51.598;7.668;2022-12-11T00:33:25;100464.88;;;7.50;48.49
29383;BME280;16365;51.598;7.668;2022-12-11T00:35:52;100461.28;;;7.49;48.57
29383;BME280;16365;51.598;7.668;2022-12-11T00:38:20;100464.88;;;7.50;48.07
29383;BME280;16365;51.598;7.668;2022-12-11T00:40:47;100464.03;;;7.49;48.86
29383;BME280;16365;51.598;7.668;2022-12-11T00:43:14;100460.66;;;7.52;48.39
29383;BME280;16365;51.598;7.668;2022-12-11T00:45:43;100464.03;;;7.49;48.64
29383;BME280;16365;51.598;7.668;2022-12-11T00:48:10;100469.06;;;7.47;48.60
29383;BME280;16365;51.598;7.668;2022-12-11T00:50:37;100467.91;;;7.48;48.57
29383;BME280;16365;51.598;7.668;2022-12-11T00:53:05;100466.28;;;7.47;48.59
29383;BME280;16365;51.598;7.668;2022-12-11T00:55:35;100464.16;;;7.44;48.45
29383;BME280;16365;51.598;7.668;2022-12-11T00:58:02;100470.81;;;7.43;48.51
29383;BME280;16365;51.598;7.668;2022-12-11T01:00:29;100471.13;;;7.41;48.44
29383;BME280;16365;51.598;7.668;2022-12-11T01:02:55;100471.75;;;7.38;48.22
29383;BME280;16365;51.598;7.668;2022-12-11T01:05:22;100467.16;;;7.34;48.75
29383;BME280;16365;51.598;7.668;2022-12-11T01:07:48;100465.53;;;7.33;48.65
29383;BME280;16365;51.598;7.668;2022-12-11T01:10:15;100465.03;;;7.31;48.56
29383;BME280;16365;51.598;7.668;2022-12-11T01:12:54;100467.81;;;7.31;48.77
29383;BME280;16365;51.598;7.668;2022-12-11T01:15:23;100469.75;;;7.30;48.63
29383;BME280;16365;51.598;7.668;2022-12-11T01:17:50;100477.69;;;7.32;49.12
29383;BME280;16365;51.598;7.668;2022-12-11T01:20:18;100477.69;;;7.32;48.94
29383;BME280;16365;51.598;7.668;2022-12-11T01:22:45;100481.28;;;7.32;48.83
29383;BME280;16365;51.598;7.668;2022-12-11T01:25:12;100484.03;;;7.32;49.00
29383;BME280;16365;51.598;7.668;2022-12-11T01:27:38;100481.59;;;7.31;48.81
29383;BME280;16365;51.598;7.668;2022-12-11T01:30:06;100490.97;;;7.30;48.64
29383;BME280;16365;51.598;7.668;2022-12-11T01:32:34;100487.72;;;7.28;48.34
29383;BME280;16365;51.598;7.668;2022-12-11T01:35:06;100489.47;;;7.24;49.05
29383;BME280;16365;51.598;7.668;2022-12-11T01:37:33;100491.41;;;7.23;48.94
29383;BME280;16365;51.598;7.668;2022-12-11T01:40:00;100489.78;;;7.22;48.69
29383;BME280;16365;51.598;7.668;2022-12-11T01:42:27;100500.28;;;7.20;48.89
29383;BME280;16365;51.598;7.668;2022-12-11T01:47:55;100489.59;;;7.18;48.93
29383;BME280;16365;51.598;7.668;2022-12-11T01:50:23;100479.69;;;7.17;49.05
29383;BME280;16365;51.598;7.668;2022-12-11T01:52:50;100484.38;;;7.17;49.01
29383;BME280;16365;51.598;7.668;2022-12-11T01:55:17;100474.50;;;7.16;48.74
29383;BME280;16365;51.598;7.668;2022-12-11T01:57:47;100470.88;;;7.15;48.99
29383;BME280;16365;51.598;7.668;2022-12-11T02:00:15;100476.41;;;7.15;49.30
29383;BME280;16365;51.598;7.668;2022-12-11T02:02:41;100472.84;;;7.15;49.10
29383;BME280;16365;51.598;7.668;2022-12-11T02:05:08;100469.59;;;7.13;48.81
29383;BME280;16365;51.598;7.668;2022-12-11T02:07:56;100467.16;;;7.11;48.85
29383;BME280;16365;51.598;7.668;2022-12-11T02:10:34;100473.75;;;7.10;48.89
29383;BME280;16365;51.598;7.668;2022-12-11T02:13:13;100474.59;;;7.11;49.17
29383;BME280;16365;51.598;7.668;2022-12-11T02:15:50;100476.84;;;7.09;49.28
29383;BME280;16365;51.598;7.668;2022-12-11T02:19:20;100471.84;;;7.11;48.97
29383;BME280;16365;51.598;7.668;2022-12-11T02:21:25;100470.03;;;7.06;49.19
29383;BME280;16365;51.598;7.668;2022-12-11T02:24:13;100475.53;;;7.06;48.93
29383;BME280;16365;51.598;7.668;2022-12-11T02:29:58;100468.09;;;7.07;48.99
29383;BME280;16365;51.598;7.668;2022-12-11T02:32:56;100465.94;;;7.04;49.14
29383;BME280;16365;51.598;7.668;2022-12-11T02:37:58;100462.03;;;7.05;49.03
29383;BME280;16365;51.598;7.668;2022-12-11T02:40:29;100466.44;;;7.06;49.03
29383;BME280;16365;51.598;7.668;2022-12-11T02:42:59;100465.31;;;7.07;49.43
29383;BME280;16365;51.598;7.668;2022-12-11T02:45:27;100460.63;;;7.07;49.08
29383;BME280;16365;51.598;7.668;2022-12-11T02:47:57;100467.75;;;7.08;49.41
29383;BME280;16365;51.598;7.668;2022-12-11T02:50:26;100464.41;;;7.11;49.68
29383;BME280;16365;51.598;7.668;2022-12-11T02:52:55;100467.31;;;7.15;49.26
29383;BME280;16365;51.598;7.668;2022-12-11T02:55:25;100460.38;;;7.17;49.27
29383;BME280;16365;51.598;7.668;2022-12-11T02:58:16;100463.63;;;7.19;49.74
29383;BME280;16365;51.598;7.668;2022-12-11T03:00:44;100458.81;;;7.25;48.93
29383;BME280;16365;51.598;7.668;2022-12-11T03:03:11;100455.44;;;7.28;48.99
29383;BME280;16365;51.598;7.668;2022-12-11T03:05:38;100448.50;;;7.31;49.35
29383;BME280;16365;51.598;7.668;2022-12-11T03:08:05;100446.22;;;7.33;49.09
29383;BME280;16365;51.598;7.668;2022-12-11T03:10:32;100442.06;;;7.35;49.31
29383;BME280;16365;51.598;7.668;2022-12-11T03:12:59;100446.72;;;7.35;49.15
29383;BME280;16365;51.598;7.668;2022-12-11T03:15:33;100453.09;;;7.35;49.33
29383;BME280;16365;51.598;7.668;2022-12-11T03:20:38;100446.63;;;7.40;48.77
29383;BME280;16365;51.598;7.668;2022-12-11T03:23:16;100446.63;;;7.40;48.83
29383;BME280;16365;51.598;7.668;2022-12-11T03:25:56;100444.69;;;7.40;49.17
29383;BME280;16365;51.598;7.668;2022-12-11T03:28:30;100442.72;;;7.41;48.87
29383;BME280;16365;51.598;7.668;2022-12-11T03:31:04;100443.53;;;7.41;49.20
29383;BME280;16365;51.598;7.668;2022-12-11T03:33:36;100446.31;;;7.41;49.44
29383;BME280;16365;51.598;7.668;2022-12-11T03:36:07;100446.31;;;7.41;49.62
29383;BME280;16365;51.598;7.668;2022-12-11T03:38:42;100451.00;;;7.41;49.38
29383;BME280;16365;51.598;7.668;2022-12-11T03:41:10;100445.50;;;7.41;49.08
29383;BME280;16365;51.598;7.668;2022-12-11T03:43:40;100452.63;;;7.42;48.99
29383;BME280;16365;51.598;7.668;2022-12-11T03:46:08;100439.97;;;7.41;49.32
29383;BME280;16365;51.598;7.668;2022-12-11T03:48:36;100445.16;;;7.42;49.75
29383;BME280;16365;51.598;7.668;2022-12-11T03:51:05;100443.53;;;7.41;49.33
29383;BME280;16365;51.598;7.668;2022-12-11T03:53:33;100440.78;;;7.41;49.42
29383;BME280;16365;51.598;7.668;2022-12-11T03:56:02;100444.03;;;7.43;49.31
29383;BME280;16365;51.598;7.668;2022-12-11T03:58:30;100437.38;;;7.44;49.52
29383;BME280;16365;51.598;7.668;2022-12-11T04:00:57;100441.78;;;7.45;49.51
29383;BME280;16365;51.598;7.668;2022-12-11T04:03:24;100436.78;;;7.47;49.92
29383;BME280;16365;51.598;7.668;2022-12-11T04:05:52;100441.47;;;7.47;49.44
29383;BME280;16365;51.598;7.668;2022-12-11T04:08:20;100440.03;;;7.50;49.64
29383;BME280;16365;51.598;7.668;2022-12-11T04:10:47;100439.41;;;7.53;50.13
29383;BME280;16365;51.598;7.668;2022-12-11T04:13:14;100442.69;;;7.55;48.88
29383;BME280;16365;51.598;7.668;2022-12-11T04:15:40;100437.16;;;7.55;49.16
29383;BME280;16365;51.598;7.668;2022-12-11T04:18:07;100438.25;;;7.54;49.68
29383;BME280;16365;51.598;7.668;2022-12-11T04:20:53;100449.00;;;7.55;49.33
29383;BME280;16365;51.598;7.668;2022-12-11T04:23:39;100440.72;;;7.55;49.73
29383;BME280;16365;51.598;7.668;2022-12-11T04:26:24;100446.72;;;7.57;49.64
29383;BME280;16365;51.598;7.668;2022-12-11T04:28:50;100445.91;;;7.57;49.34
29383;BME280;16365;51.598;7.668;2022-12-11T04:31:19;100449.50;;;7.57;49.28
29383;BME280;16365;51.598;7.668;2022-12-11T04:33:46;100443.16;;;7.57;49.61
29383;BME280;16365;51.598;7.668;2022-12-11T04:36:13;100436.50;;;7.58;49.86
29383;BME280;16365;51.598;7.668;2022-12-11T04:38:40;100448.34;;;7.58;49.48
29383;BME280;16365;51.598;7.668;2022-12-11T04:41:10;100446.72;;;7.57;49.41
29383;BME280;16365;51.598;7.668;2022-12-11T04:43:37;100437.31;;;7.58;49.10
29383;BME280;16365;51.598;7.668;2022-12-11T04:46:15;100442.03;;;7.58;49.58
29383;BME280;16365;51.598;7.668;2022-12-11T04:48:42;100443.84;;;7.62;49.66
29383;BME280;16365;51.598;7.668;2022-12-11T04:51:09;100434.44;;;7.63;49.73
29383;BME280;16365;51.598;7.668;2022-12-11T04:53:36;100431.66;;;7.63;49.16
29383;BME280;16365;51.598;7.668;2022-12-11T04:56:08;100427.28;;;7.62;49.63
29383;BME280;16365;51.598;7.668;2022-12-11T04:58:35;100432.19;;;7.65;49.45
29383;BME280;16365;51.598;7.668;2022-12-11T05:01:16;100432.81;;;7.62;49.50
29383;BME280;16365;51.598;7.668;2022-12-11T05:03:43;100434.13;;;7.65;49.14
29383;BME280;16365;51.598;7.668;2022-12-11T05:06:11;100432.47;;;7.64;49.37
29383;BME280;16365;51.598;7.668;2022-12-11T05:08:39;100433.00;;;7.66;50.01
29383;BME280;16365;51.598;7.668;2022-12-11T05:11:08;100430.25;;;7.66;49.96
29383;BME280;16365;51.598;7.668;2022-12-11T05:13:35;100431.53;;;7.68;49.70
29383;BME280;16365;51.598;7.668;2022-12-11T05:16:04;100435.44;;;7.67;49.72
29383;BME280;16365;51.598;7.668;2022-12-11T05:18:30;100439.81;;;7.68;50.02
29383;BME280;16365;51.598;7.668;2022-12-11T05:20:59;100427.16;;;7.67;49.70
29383;BME280;16365;51.598;7.668;2022-12-11T05:23:25;100432.38;;;7.69;50.12
29383;BME280;16365;51.598;7.668;2022-12-11T05:25:57;100430.09;;;7.71;49.53
29383;BME280;16365;51.598;7.668;2022-12-11T05:28:24;100426.03;;;7.68;49.16
29383;BME280;16365;51.598;7.668;2022-12-11T05:30:58;100427.81;;;7.64;49.35
29383;BME280;16365;51.598;7.668;2022-12-11T05:33:26;100434.13;;;7.65;49.70
29383;BME280;16365;51.598;7.668;2022-12-11T05:35:52;100428.09;;;7.63;49.71
29383;BME280;16365;51.598;7.668;2022-12-11T05:38:19;100429.72;;;7.64;49.86
29383;BME280;16365;51.598;7.668;2022-12-11T05:41:03;100426.81;;;7.60;50.00
29383;BME280;16365;51.598;7.668;2022-12-11T05:43:32;100430.56;;;7.64;49.63
29383;BME280;16365;51.598;7.668;2022-12-11T05:48:44;100422.28;;;7.64;49.77
29383;BME280;16365;51.598;7.668;2022-12-11T05:51:13;100421.16;;;7.65;50.17
29383;BME280;16365;51.598;7.668;2022-12-11T05:53:40;100418.41;;;7.65;49.79
29383;BME280;16365;51.598;7.668;2022-12-11T05:56:12;100420.34;;;7.65;50.25
29383;BME280;16365;51.598;7.668;2022-12-11T05:58:40;100417.25;;;7.66;50.19
29383;BME280;16365;51.598;7.668;2022-12-11T06:01:09;100411.75;;;7.66;50.29
29383;BME280;16365;51.598;7.668;2022-12-11T06:03:36;100413.38;;;7.67;50.44
29383;BME280;16365;51.598;7.668;2022-12-11T06:06:04;100411.41;;;7.68;49.68
29383;BME280;16365;51.598;7.668;2022-12-11T06:08:31;100413.06;;;7.69;50.25
29383;BME280;16365;51.598;7.668;2022-12-11T06:10:58;100418.25;;;7.70;49.55
29383;BME280;16365;51.598;7.668;2022-12-11T06:13:25;100411.13;;;7.69;50.23
29383;BME280;16365;51.598;7.668;2022-12-11T06:15:52;100413.06;;;7.69;49.64
29383;BME280;16365;51.598;7.668;2022-12-11T06:18:19;100409.47;;;7.68;49.52
29383;BME280;16365;51.598;7.668;2022-12-11T06:20:45;100408.97;;;7.66;49.68
29383;BME280;16365;51.598;7.668;2022-12-11T06:23:14;100407.34;;;7.65;49.53
29383;BME280;16365;51.598;7.668;2022-12-11T06:25:40;100399.38;;;7.64;50.00
29383;BME280;16365;51.598;7.668;2022-12-11T06:28:07;100399.69;;;7.62;50.10
29383;BME280;16365;51.598;7.668;2022-12-11T06:30:34;100405.22;;;7.62;49.97
29383;BME280;16365;51.598;7.668;2022-12-11T06:33:04;100396.94;;;7.62;49.50
29383;BME280;16365;51.598;7.668;2022-12-11T06:35:31;100402.47;;;7.62;49.99
29383;BME280;16365;51.598;7.668;2022-12-11T06:38:03;100399.38;;;7.64;50.13
29383;BME280;16365;51.598;7.668;2022-12-11T06:40:30;100401.31;;;7.63;49.99
29383;BME280;16365;51.598;7.668;2022-12-11T06:42:56;100399.69;;;7.62;49.94
29383;BME280;16365;51.598;7.668;2022-12-11T06:45:22;100404.41;;;7.62;50.22
29383;BME280;16365;51.598;7.668;2022-12-11T06:47:49;100403.59;;;7.61;50.23
29383;BME280;16365;51.598;7.668;2022-12-11T06:50:15;100403.59;;;7.61;50.32
29383;BME280;16365;51.598;7.668;2022-12-11T06:52:42;100406.34;;;7.61;50.24
29383;BME280;16365;51.598;7.668;2022-12-11T06:55:08;100403.59;;;7.61;50.03
29383;BME280;16365;51.598;7.668;2022-12-11T06:57:35;100404.88;;;7.64;50.15
29383;BME280;16365;51.598;7.668;2022-12-11T07:00:02;100401.31;;;7.63;49.97
29383;BME280;16365;51.598;7.668;2022-12-11T07:02:29;100403.28;;;7.63;49.85
29383;BME280;16365;51.598;7.668;2022-12-11T07:04:55;100395.00;;;7.63;50.34
29383;BME280;16365;51.598;7.668;2022-12-11T07:07:22;100400.50;;;7.63;50.42
29383;BME280;16365;51.598;7.668;2022-12-11T07:09:48;100402.13;;;7.64;50.33
29383;BME280;16365;51.598;7.668;2022-12-11T07:12:16;100406.84;;;7.63;50.33
29383;BME280;16365;51.598;7.668;2022-12-11T07:14:42;100408.50;;;7.64;49.97
29383;BME280;16365;51.598;7.668;2022-12-11T07:17:09;100412.88;;;7.65;50.43
29383;BME280;16365;51.598;7.668;2022-12-11T07:19:35;100414.50;;;7.66;49.94
29383;BME280;16365;51.598;7.668;2022-12-11T07:22:02;100414.16;;;7.68;49.98
29383;BME280;16365;51.598;7.668;2022-12-11T07:24:28;100410.31;;;7.69;50.24
29383;BME280;16365;51.598;7.668;2022-12-11T07:26:54;100409.97;;;7.70;49.65
29383;BME280;16365;51.598;7.668;2022-12-11T07:29:21;100415.16;;;7.72;49.54
29383;BME280;16365;51.598;7.668;2022-12-11T07:31:47;100410.47;;;7.72;50.16
29383;BME280;16365;51.598;7.668;2022-12-11T07:34:13;100414.03;;;7.73;50.27
29383;BME280;16365;51.598;7.668;2022-12-11T07:36:40;100408.50;;;7.73;49.63
29383;BME280;16365;51.598;7.668;2022-12-11T07:39:06;100409.34;;;7.73;49.88
29383;BME280;16365;51.598;7.668;2022-12-11T07:41:34;100407.41;;;7.74;49.62
29383;BME280;16365;51.598;7.668;2022-12-11T07:44:01;100403.81;;;7.73;49.90
29383;BME280;16365;51.598;7.668;2022-12-11T07:46:29;100402.19;;;7.72;50.17
29383;BME280;16365;51.598;7.668;2022-12-11T07:48:56;100410.47;;;7.72;50.05
29383;BME280;16365;51.598;7.668;2022-12-11T07:51:25;100415.69;;;7.74;49.87
29383;BME280;16365;51.598;7.668;2022-12-11T07:53:55;100419.25;;;7.75;50.26
29383;BME280;16365;51.598;7.668;2022-12-11T07:56:22;100420.56;;;7.77;49.99
29383;BME280;16365;51.598;7.668;2022-12-11T07:58:49;100420.56;;;7.77;50.02
29383;BME280;16365;51.598;7.668;2022-12-11T08:01:18;100423.84;;;7.79;50.27
29383;BME280;16365;51.598;7.668;2022-12-11T08:03:46;100422.38;;;7.82;50.26
29383;BME280;16365;51.598;7.668;2022-12-11T08:06:12;100421.22;;;7.83;49.80
29383;BME280;16365;51.598;7.668;2022-12-11T08:08:40;100423.69;;;7.84;49.76
29383;BME280;16365;51.598;7.668;2022-12-11T08:11:10;100418.19;;;7.84;50.44
29383;BME280;16365;51.598;7.668;2022-12-11T08:13:37;100424.19;;;7.86;50.17
29383;BME280;16365;51.598;7.668;2022-12-11T08:16:05;100419.47;;;7.87;50.09
29383;BME280;16365;51.598;7.668;2022-12-11T08:18:33;100425.50;;;7.89;49.78
29383;BME280;16365;51.598;7.668;2022-12-11T08:21:12;100417.22;;;7.89;50.35
29383;BME280;16365;51.598;7.668;2022-12-11T08:23:39;100422.91;;;7.92;49.71
29383;BME280;16365;51.598;7.668;2022-12-11T08:26:07;100416.56;;;7.92;50.13
29383;BME280;16365;51.598;7.668;2022-12-11T08:28:34;100413.50;;;7.93;49.96
29383;BME280;16365;51.598;7.668;2022-12-11T08:31:04;100419.34;;;7.92;49.41
29383;BME280;16365;51.598;7.668;2022-12-11T08:33:31;100419.84;;;7.94;49.74
29383;BME280;16365;51.598;7.668;2022-12-11T08:35:57;100420.16;;;7.92;49.41
29383;BME280;16365;51.598;7.668;2022-12-11T08:38:23;100418.53;;;7.91;50.49
29383;BME280;16365;51.598;7.668;2022-12-11T08:40:51;100423.41;;;7.94;50.11
29383;BME280;16365;51.598;7.668;2022-12-11T08:43:17;100430.88;;;7.94;50.19
29383;BME280;16365;51.598;7.668;2022-12-11T08:45:45;100425.03;;;7.95;49.54
29383;BME280;16365;51.598;7.668;2022-12-11T08:48:11;100426.38;;;7.98;49.72
29383;BME280;16365;51.598;7.668;2022-12-11T08:50:38;100417.75;;;7.99;50.10
29383;BME280;16365;51.598;7.668;2022-12-11T08:53:04;100416.63;;;8.01;49.72
29383;BME280;16365;51.598;7.668;2022-12-11T08:55:31;100416.63;;;8.01;49.79
29383;BME280;16365;51.598;7.668;2022-12-11T08:57:58;100418.25;;;8.02;49.51
29383;BME280;16365;51.598;7.668;2022-12-11T09:00:24;100408.66;;;7.99;49.46
29383;BME280;16365;51.598;7.668;2022-12-11T09:02:51;100406.38;;;8.01;49.69
29383;BME280;16365;51.598;7.668;2022-12-11T09:05:18;100417.44;;;8.01;49.45
29383;BME280;16365;51.598;7.668;2022-12-11T09:07:44;100409.97;;;8.02;49.53
29383;BME280;16365;51.598;7.668;2022-12-11T09:10:10;100412.72;;;8.02;50.08
29383;BME280;16365;51.598;7.668;2022-12-11T09:12:37;100414.38;;;8.03;50.18
29383;BME280;16365;51.598;7.668;2022-12-11T09:15:04;100415.19;;;8.03;50.04
29383;BME280;16365;51.598;7.668;2022-12-11T09:17:30;100414.03;;;8.04;50.04
29383;BME280;16365;51.598;7.668;2022-12-11T09:19:58;100414.53;;;8.06;49.64
29383;BME280;16365;51.598;7.668;2022-12-11T09:22:25;100411.75;;;8.06;49.57
29383;BME280;16365;51.598;7.668;2022-12-11T09:24:51;100410.97;;;8.06;50.15
29383;BME280;16365;51.598;7.668;2022-12-11T09:27:18;100414.53;;;8.06;49.70
29383;BME280;16365;51.598;7.668;2022-12-11T09:29:46;100410.63;;;8.07;49.71
29383;BME280;16365;51.598;7.668;2022-12-11T09:32:12;100411.75;;;8.06;49.54
29383;BME280;16365;51.598;7.668;2022-12-11T09:34:39;100409.81;;;8.07;50.14
29383;BME280;16365;51.598;7.668;2022-12-11T09:37:05;100409.19;;;8.10;49.82
29383;BME280;16365;51.598;7.668;2022-12-11T09:39:32;100408.88;;;8.11;49.81
29383;BME280;16365;51.598;7.668;2022-12-11T09:42:18;100410.81;;;8.11;49.84
29383;BME280;16365;51.598;7.668;2022-12-11T09:44:50;100407.59;;;8.17;50.28
29383;BME280;16365;51.598;7.668;2022-12-11T09:47:22;100400.28;;;8.21;49.56
29383;BME280;16365;51.598;7.668;2022-12-11T09:49:57;100411.34;;;8.21;49.40
29383;BME280;16365;51.598;7.668;2022-12-11T09:52:34;100405.34;;;8.19;49.54
29383;BME280;16365;51.598;7.668;2022-12-11T09:55:12;100402.56;;;8.19;48.76
29383;BME280;16365;51.598;7.668;2022-12-11T09:57:50;100397.03;;;8.19;48.73
29383;BME280;16365;51.598;7.668;2022-12-11T10:00:28;100397.03;;;8.19;49.22
29383;BME280;16365;51.598;7.668;2022-12-11T10:03:29;100392.34;;;8.20;49.00
29383;BME280;16365;51.598;7.668;2022-12-11T10:06:23;100392.00;;;8.21;49.32
29383;BME280;16365;51.598;7.668;2022-12-11T10:17:08;100398.38;;;8.31;49.31
29383;BME280;16365;51.598;7.668;2022-12-11T10:19:37;100396.94;;;8.33;49.17
29383;BME280;16365;51.598;7.668;2022-12-11T10:22:13;100394.97;;;8.34;48.64
29383;BME280;16365;51.598;7.668;2022-12-11T10:24:46;100394.66;;;8.35;48.89
29383;BME280;16365;51.598;7.668;2022-12-11T10:27:38;100390.78;;;8.36;48.86
29383;BME280;16365;51.598;7.668;2022-12-11T10:32:58;100387.50;;;8.34;48.48
29383;BME280;16365;51.598;7.668;2022-12-11T10:35:37;100390.78;;;8.36;48.11
29383;BME280;16365;51.598;7.668;2022-12-11T10:38:14;100390.47;;;8.38;47.90
29383;BME280;16365;51.598;7.668;2022-12-11T10:40:44;100387.38;;;8.39;48.29
29383;BME280;16365;51.598;7.668;2022-12-11T10:43:11;100383.47;;;8.40;48.34
29383;BME280;16365;51.598;7.668;2022-12-11T10:45:38;100390.66;;;8.41;48.59
29383;BME280;16365;51.598;7.668;2022-12-11T10:48:08;100385.44;;;8.40;47.69
29383;BME280;16365;51.598;7.668;2022-12-11T10:50:35;100380.72;;;8.40;48.45
29383;BME280;16365;51.598;7.668;2022-12-11T10:53:04;100379.09;;;8.39;47.66
29383;BME280;16365;51.598;7.668;2022-12-11T10:55:42;100376.13;;;8.36;47.37
29383;BME280;16365;51.598;7.668;2022-12-11T10:58:16;100370.94;;;8.34;48.15
29383;BME280;16365;51.598;7.668;2022-12-11T11:00:44;100376.44;;;8.34;47.99
29383;BME280;16365;51.598;7.668;2022-12-11T11:03:21;100375.16;;;8.32;47.34
29383;BME280;16365;51.598;7.668;2022-12-11T11:05:47;100381.66;;;8.36;48.29
29383;BME280;16365;51.598;7.668;2022-12-11T11:08:20;100374.03;;;8.33;47.92
29383;BME280;16365;51.598;7.668;2022-12-11T11:10:56;100369.31;;;8.33;47.64
29383;BME280;16365;51.598;7.668;2022-12-11T11:13:26;100364.41;;;8.30;47.87
29383;BME280;16365;51.598;7.668;2022-12-11T11:16:10;100367.00;;;8.27;47.03
29383;BME280;16365;51.598;7.668;2022-12-11T11:18:40;100363.13;;;8.28;47.90
29383;BME280;16365;51.598;7.668;2022-12-11T11:21:15;100359.03;;;8.25;47.42
29383;BME280;16365;51.598;7.668;2022-12-11T11:23:48;100362.00;;;8.29;47.74
29383;BME280;16365;51.598;7.668;2022-12-11T11:26:20;100360.84;;;8.30;48.03
29383;BME280;16365;51.598;7.668;2022-12-11T11:28:52;100360.03;;;8.29;47.41
29383;BME280;16365;51.598;7.668;2022-12-11T11:31:21;100358.59;;;8.32;47.98
29383;BME280;16365;51.598;7.668;2022-12-11T11:34:00;100364.13;;;8.32;47.11
29383;BME280;16365;51.598;7.668;2022-12-11T11:36:32;100356.94;;;8.31;47.37
29383;BME280;16365;51.598;7.668;2022-12-11T11:39:09;100358.09;;;8.30;47.91
29383;BME280;16365;51.598;7.668;2022-12-11T11:44:28;100358.91;;;8.30;48.05
29383;BME280;16365;51.598;7.668;2022-12-11T11:47:10;100358.91;;;8.30;47.34
29383;BME280;16365;51.598;7.668;2022-12-11T11:49:50;100357.75;;;8.31;47.30
29383;BME280;16365;51.598;7.668;2022-12-11T11:52:28;100355.00;;;8.31;46.95
29383;BME280;16365;51.598;7.668;2022-12-11T11:55:02;100349.97;;;8.33;47.74
29383;BME280;16365;51.598;7.668;2022-12-11T11:57:52;100351.94;;;8.33;46.78
29383;BME280;16365;51.598;7.668;2022-12-11T12:00:25;100346.59;;;8.36;47.85
29383;BME280;16365;51.598;7.668;2022-12-11T12:03:09;100347.41;;;8.37;46.83
29383;BME280;16365;51.598;7.668;2022-12-11T12:05:42;100355.84;;;8.40;47.21
29383;BME280;16365;51.598;7.668;2022-12-11T12:11:20;100349.84;;;8.38;46.97
29383;BME280;16365;51.598;7.668;2022-12-11T12:14:17;100349.03;;;8.38;46.89
29383;BME280;16365;51.598;7.668;2022-12-11T12:17:22;100349.84;;;8.38;47.52
29383;BME280;16365;51.598;7.668;2022-12-11T12:20:10;100349.03;;;8.38;47.40
29383;BME280;16365;51.598;7.668;2022-12-11T12:22:56;100350.19;;;8.37;47.38
29383;BME280;16365;51.598;7.668;2022-12-11T12:25:36;100339.94;;;8.37;47.05
29383;BME280;16365;51.598;7.668;2022-12-11T12:33:46;100337.44;;;8.36;47.46
29383;BME280;16365;51.598;7.668;2022-12-11T12:36:26;100331.66;;;8.37;47.39
29383;BME280;16365;51.598;7.668;2022-12-11T12:41:58;100329.38;;;8.39;47.18
29383;BME280;16365;51.598;7.668;2022-12-11T12:45:40;100325.00;;;8.38;46.49
29383;BME280;16365;51.598;7.668;2022-12-11T12:47:45;100325.81;;;8.39;46.67
29383;BME280;16365;51.598;7.668;2022-12-11T12:50:24;100321.72;;;8.36;47.15
29383;BME280;16365;51.598;7.668;2022-12-11T12:52:52;100322.56;;;8.37;47.35
29383;BME280;16365;51.598;7.668;2022-12-11T12:55:29;100323.16;;;8.34;47.30
29383;BME280;16365;51.598;7.668;2022-12-11T12:57:59;100320.88;;;8.36;47.41
29383;BME280;16365;51.598;7.668;2022-12-11T13:00:37;100328.34;;;8.35;47.62
29383;BME280;16365;51.598;7.668;2022-12-11T13:05:41;100325.13;;;8.33;47.00
29383;BME280;16365;51.598;7.668;2022-12-11T13:08:09;100325.44;;;8.32;47.12
29383;BME280;16365;51.598;7.668;2022-12-11T13:10:39;100319.94;;;8.32;47.44
29383;BME280;16365;51.598;7.668;2022-12-11T13:13:36;100321.38;;;8.29;46.95
29383;BME280;16365;51.598;7.668;2022-12-11T13:18:44;100321.03;;;8.31;47.01
29383;BME280;16365;51.598;7.668;2022-12-11T13:23:52;100324.31;;;8.33;46.76
29383;BME280;16365;51.598;7.668;2022-12-11T13:26:31;100318.94;;;8.28;46.96
29383;BME280;16365;51.598;7.668;2022-12-11T13:28:58;100318.13;;;8.27;46.82
29383;BME280;16365;51.598;7.668;2022-12-11T13:34:06;100317.13;;;8.23;46.87
29383;BME280;16365;51.598;7.668;2022-12-11T13:36:34;100317.63;;;8.25;46.65
29383;BME280;16365;51.598;7.668;2022-12-11T13:39:24;100312.75;;;8.22;46.88
29383;BME280;16365;51.598;7.668;2022-12-11T13:41:53;100320.38;;;8.25;46.80
29383;BME280;16365;51.598;7.668;2022-12-11T13:44:29;100321.84;;;8.22;46.93
29383;BME280;16365;51.598;7.668;2022-12-11T13:47:00;100316.81;;;8.24;47.17
29383;BME280;16365;51.598;7.668;2022-12-11T13:49:33;100321.19;;;8.25;46.65
29383;BME280;16365;51.598;7.668;2022-12-11T13:52:01;100315.38;;;8.27;46.89
29383;BME280;16365;51.598;7.668;2022-12-11T13:54:32;100319.75;;;8.28;46.52
29383;BME280;16365;51.598;7.668;2022-12-11T13:57:03;100323.00;;;8.30;47.25
29383;BME280;16365;51.598;7.668;2022-12-11T13:59:41;100321.03;;;8.31;46.55
29383;BME280;16365;51.598;7.668;2022-12-11T14:02:47;100319.94;;;8.32;46.61
29383;BME280;16365;51.598;7.668;2022-12-11T14:05:14;100322.56;;;8.37;46.53
29383;BME280;16365;51.598;7.668;2022-12-11T14:07:49;100323.97;;;8.34;46.79
29383;BME280;16365;51.598;7.668;2022-12-11T14:10:19;100328.09;;;8.37;46.43